MUC | München Airways

 METAR UND TAF INFORMATION

METAR FOR LOWK
ADDS - METARS form results

(0541 UTC 24 May 2019)
Data provider http://aviationweather.gov/metar/data/
 
METAR text: LOWK 240520Z 31003KT 9999 FEW050 11/06 Q1016 NOSIG
Conditions at: LOWK (KLAGENFURT(CIV/M, AT) observed 0520 UTC 24 May 2019
Temperature: 11.0°C (52°F)
Dewpoint: 6.0°C (43°F) [RH = 71%]
Pressure (altimeter): 30.00 inches Hg (1016.0 mb)
Winds: from the NW (310 degrees) at 3 MPH (3 knots; 1.5 m/s)
Visibility: 6 or more miles (10+ km)
Ceiling: at least 12,000 feet AGL
Clouds: few clouds at 5000 feet AGL
Weather: no significant weather observed at this time

METAR text: LOWK 240450Z AUTO 31004KT 9999 NSC 09/06 Q1016 NOSIG
Conditions at: LOWK (KLAGENFURT(CIV/M, AT) observed 0450 UTC 24 May 2019
Temperature: 9.0°C (48°F)
Dewpoint: 6.0°C (43°F) [RH = 81%]
Pressure (altimeter): 30.00 inches Hg (1016.0 mb)
Winds: from the NW (310 degrees) at 5 MPH (4 knots; 2.1 m/s)
Visibility: 6 or more miles (10+ km)
Ceiling: at least 12,000 feet AGL
Clouds: sky clear below 12,000 feet AGL
Weather: no significant weather observed at this time

Forecast for: LOWK (KLAGENFURT(CIV/M, AT)
Text: TAF LOWK 240515Z 2406/2506 13004KT 9999 FEW070 TX22/2415Z TN10/2504Z
Forecast period: 0600 UTC 24 May 2019 to 0600 UTC 25 May 2019
Forecast type: FROM: standard forecast or significant change
Winds: from the SE (130 degrees) at 5 MPH (4 knots; 2.1 m/s)
Visibility: 6 or more miles 10+ km)
Ceiling: at least 12,000 feet AGL
Clouds: few clouds at 7000 feet AGL
Weather: no significant weather forecast for this period
Text: TEMPO 2420/2501 BKN060
Forecast period: 2000 UTC 24 May 2019 to 0100 UTC 25 May 2019
Forecast type: TEMPORARY: The following changes expected for less than half the time period
Visibility: missing
Ceiling: 6000 feet AGL
Clouds: broken clouds at 6000 feet AGL
Weather: no significant weather forecast for this period

 FLUGHAFENKARTE

 RUNWAY INFORMATION
Runway 10R Runway length 2427 ft Runway width 90 ft
Runway elevation 1470 ft Runway displaced threshold 196 ft Runway heading 106
Runway 28L Runway length 2427 ft Runway width 90 ft
Runway elevation 1463 ft Runway displaced threshold 196 ft Runway heading 286
Runway 10L Runway length 8924 ft Runway width 148 ft
Runway elevation 1470 ft Runway displaced threshold 656 ft Runway heading 106
Runway 28R Runway length 8924 ft Runway width 148 ft
Runway elevation 1445 ft Runway displaced threshold 0 ft Runway heading 286

 AIRPORT FREQUENCIES
Type APP Name APP Frequency 126.825 MHZ
Type ATIS Name ATIS Frequency 124.075 MHZ
Type TWR Name TWR Frequency 118.1 MHZ

 AIRPORT NEAR NAVIGATION AIDS
Type VOR-DME Name Klagenfurt Frequency 113100 KHZ
Type NDB Name Klagenfurt Frequency 374 KHZ
Type NDB Name Klagenfurt Frequency 405 KHZ
Type VOR-DME Name Villach Frequency 112900 KHZ